EmailTwitter


Observations de surface / Québec / LFLC

Régions: Québec | Canada | États-Unis | Europe | France | UK | Elsewhere
Station
Affichage
Infos & localisation pour LFLC | Aide pour décoder les METARs

Observations prises le 2017-05-26 à 01H30 UTC à CLERMONT/AULNAT, FR (LFLC)

Température: 14.0 Celsius

Point de rosée: 11.0 Celsius

Humidité relative: 82%

Vents: Calme à 0 km/h ou 0 noeuds.

Pression au niveau moyen de la mer: 101.60 kilopascals.

Observation METAR:

LFLC 260130Z AUTO 00000KT CAVOK 14/11 Q1016 NOSIG=